Time;durP1;ratioP1;P1;durP2;ratioP2;P2;SDS_P1;SDS_P2;PMS_P1;PMS_P2;Temp;Humidity;BMP_temperature;BMP_pressure;BME280_temperature;BME280_humidity;BME280_pressure;Samples;Min_cycle;Max_cycle;Signal;HPM_P1;HPM_P2
2021/12/13 00:00:51;;;;;;;120.93;35.40;;;10.50;99.90;;;;;;4954027;28;20107;-83
2021/12/13 00:03:16;;;;;;;;;;;10.50;99.90;;;;;;4955669;28;20054;-84
2021/12/13 00:05:48;;;;;;;132.70;35.58;;;10.60;99.90;;;;;;4969913;28;20390;-83
2021/12/13 00:08:18;;;;;;;131.98;36.38;;;10.50;99.90;;;;;;4954544;28;20055;-84
2021/12/13 00:11:05;;;;;;;123.55;34.83;;;10.50;99.90;;;;;;4954036;28;20113;-84
2021/12/13 00:13:46;;;;;;;144.00;35.47;;;10.50;99.90;;;;;;4956951;28;20058;-84
2021/12/13 00:16:12;;;;;;;170.20;40.10;;;10.50;99.90;;;;;;4970526;28;20058;-83
2021/12/13 00:18:41;;;;;;;122.88;34.70;;;10.50;99.90;;;;;;4954469;28;20047;-85
2021/12/13 00:21:13;;;;;;;121.43;33.05;;;10.60;99.90;;;;;;4937708;28;20502;-83
2021/12/13 00:23:48;;;;;;;147.48;35.85;;;10.60;99.90;;;;;;4954572;28;20050;-84
2021/12/13 00:26:21;;;;;;;139.93;36.90;;;10.50;99.90;;;;;;4954449;28;20129;-85
2021/12/13 00:28:46;;;;;;;138.57;34.47;;;10.50;99.90;;;;;;4953810;28;20050;-83
2021/12/13 00:31:15;;;;;;;160.40;39.20;;;10.60;99.90;;;;;;4970224;28;20129;-84
2021/12/13 00:33:56;;;;;;;134.55;37.08;;;10.50;99.90;;;;;;4975089;28;20050;-84
2021/12/13 00:36:33;;;;;;;185.82;40.53;;;10.50;99.90;;;;;;4973993;28;20050;-84
2021/12/13 00:39:09;;;;;;;163.07;40.13;;;10.50;99.90;;;;;;4973398;28;20051;-84
2021/12/13 00:41:35;;;;;;;175.45;40.45;;;10.60;99.90;;;;;;4958026;28;20059;-84
2021/12/13 00:44:10;;;;;;;182.05;38.88;;;10.50;99.90;;;;;;4957098;28;20113;-84
2021/12/13 00:46:37;;;;;;;163.98;38.70;;;10.50;99.90;;;;;;4957745;28;20058;-84
2021/12/13 00:49:03;;;;;;;172.13;36.63;;;10.50;99.90;;;;;;4973058;28;20055;-84
2021/12/13 00:51:35;;;;;;;166.25;39.67;;;10.50;99.90;;;;;;4973263;28;20065;-83
2021/12/13 00:54:03;;;;;;;181.07;40.95;;;10.60;99.90;;;;;;4973010;28;20224;-84
2021/12/13 00:56:54;;;;;;;192.48;40.78;;;10.50;99.90;;;;;;4957784;28;20054;-83
2021/12/13 00:59:31;;;;;;;190.80;42.72;;;10.50;99.90;;;;;;4957588;28;20050;-83
2021/12/13 01:02:18;;;;;;;188.27;42.78;;;10.50;99.90;;;;;;4956725;28;20109;-84
2021/12/13 01:04:48;;;;;;;192.30;40.55;;;10.50;99.90;;;;;;4959776;28;20499;-84
2021/12/13 01:07:32;;;;;;;191.63;42.08;;;10.60;99.90;;;;;;4972687;28;20067;-84
2021/12/13 01:10:26;;;;;;;230.18;45.58;;;10.60;99.90;;;;;;4972373;28;20078;-84
2021/12/13 01:12:51;;;;;;;240.07;47.10;;;10.50;99.90;;;;;;4972822;28;20602;-84
2021/12/13 01:15:34;;;;;;;260.00;47.85;;;10.50;99.90;;;;;;4956827;28;20067;-84
2021/12/13 01:18:34;;;;;;;232.82;44.47;;;10.50;99.90;;;;;;4957994;28;20155;-85
2021/12/13 01:21:12;;;;;;;235.50;47.55;;;10.50;99.90;;;;;;4973630;28;20042;-84
2021/12/13 01:23:46;;;;;;;244.27;43.85;;;10.50;99.90;;;;;;4972909;28;20051;-84
2021/12/13 01:28:46;;;;;;;210.90;43.65;;;10.60;99.90;;;;;;4957714;28;19922;-85
2021/12/13 01:31:20;;;;;;;223.05;46.75;;;10.50;99.90;;;;;;4956357;28;20193;-85
2021/12/13 01:33:46;;;;;;;207.02;42.95;;;10.60;99.90;;;;;;4957558;28;20073;-85
2021/12/13 01:36:21;;;;;;;178.85;40.28;;;10.50;99.90;;;;;;4956203;28;20153;-84
2021/12/13 01:38:48;;;;;;;;;;;10.50;99.90;;;;;;4957934;28;20055;-84
2021/12/13 01:41:18;;;;;;;143.27;35.85;;;10.50;99.90;;;;;;4956216;28;19929;-84
2021/12/13 01:43:49;;;;;;;147.25;35.90;;;10.50;99.90;;;;;;4956320;28;20094;-84
2021/12/13 01:46:17;;;;;;;163.07;37.17;;;10.50;99.90;;;;;;4940372;28;20069;-84
2021/12/13 01:48:44;;;;;;;134.88;34.60;;;10.50;99.90;;;;;;4956400;28;20554;-85
2021/12/13 01:51:12;;;;;;;123.45;32.90;;;10.50;99.90;;;;;;4955448;28;20518;-85
2021/12/13 01:53:42;;;;;;;109.35;32.47;;;10.50;99.90;;;;;;4956690;28;20080;-84
2021/12/13 01:56:35;;;;;;;119.90;30.50;;;10.50;99.90;;;;;;4971815;28;20058;-84
2021/12/13 01:59:04;;;;;;;86.70;28.85;;;10.50;99.90;;;;;;4971681;28;20591;-84
2021/12/13 02:01:29;;;;;;;114.65;31.27;;;10.50;99.90;;;;;;4957128;28;20137;-84
2021/12/13 02:04:00;;;;;;;99.75;29.88;;;10.40;99.90;;;;;;4971889;28;20126;-82
2021/12/13 02:06:39;;;;;;;100.45;27.52;;;10.40;99.90;;;;;;4973313;28;20051;-84
2021/12/13 02:09:21;;;;;;;79.45;26.50;;;10.50;99.90;;;;;;4956065;28;20050;-84
2021/12/13 02:11:49;;;;;;;66.43;23.75;;;10.50;99.90;;;;;;4956061;28;20574;-84
2021/12/13 02:14:19;;;;;;;73.55;24.90;;;10.60;99.90;;;;;;4971445;28;20994;-85
2021/12/13 02:17:03;;;;;;;68.40;24.40;;;10.50;99.90;;;;;;4971656;28;20106;-85
2021/12/13 02:20:03;;;;;;;73.30;25.15;;;10.50;99.90;;;;;;4957607;28;20058;-85
2021/12/13 02:22:45;;;;;;;65.32;24.00;;;10.50;99.90;;;;;;4955195;28;20062;-85
2021/12/13 02:25:33;;;;;;;54.45;22.45;;;10.60;99.90;;;;;;4971110;28;20492;-85
2021/12/13 02:28:01;;;;;;;56.80;21.40;;;10.40;99.90;;;;;;4957207;28;20566;-83
2021/12/13 02:30:42;;;;;;;61.75;24.38;;;10.50;99.90;;;;;;4971464;28;20086;-84
2021/12/13 02:33:10;;;;;;;62.17;24.30;;;10.50;99.90;;;;;;4972177;28;20055;-84
2021/12/13 02:35:39;;;;;;;71.78;26.63;;;10.40;99.90;;;;;;4971801;28;20130;-84
2021/12/13 02:38:05;;;;;;;69.03;26.70;;;10.40;99.90;;;;;;4955087;28;20087;-83
2021/12/13 02:40:31;;;;;;;72.28;27.77;;;10.40;99.90;;;;;;4955574;28;20058;-83
2021/12/13 02:42:57;;;;;;;74.40;28.70;;;10.50;99.90;;;;;;4971494;28;20055;-83
2021/12/13 02:45:28;;;;;;;76.60;28.35;;;10.50;99.90;;;;;;4954746;28;20480;-84
2021/12/13 02:48:06;;;;;;;75.03;29.75;;;10.60;99.90;;;;;;4955080;28;20503;-83
2021/12/13 02:50:37;;;;;;;86.68;30.52;;;10.50;99.90;;;;;;4939318;28;20129;-83
2021/12/13 02:53:03;;;;;;;79.05;30.92;;;10.50;99.90;;;;;;4971005;28;20438;-82
2021/12/13 02:55:29;;;;;;;86.00;32.10;;;10.50;99.90;;;;;;4954599;28;20046;-83
2021/12/13 02:57:56;;;;;;;86.55;32.95;;;10.50;99.90;;;;;;4971399;28;20121;-83
2021/12/13 03:00:29;;;;;;;101.15;34.22;;;10.50;99.90;;;;;;4954667;28;20055;-85
2021/12/13 03:02:56;;;;;;;86.97;33.42;;;10.40;99.90;;;;;;4955196;28;20513;-84
2021/12/13 03:05:36;;;;;;;95.88;33.67;;;10.50;99.90;;;;;;4954646;28;20043;-84
2021/12/13 03:08:09;;;;;;;93.65;32.72;;;10.40;99.90;;;;;;4955064;28;20097;-84
2021/12/13 03:10:38;;;;;;;83.45;27.75;;;10.40;99.90;;;;;;4971053;28;20050;-84
2021/12/13 03:13:04;;;;;;;86.65;31.85;;;10.40;99.90;;;;;;4970608;28;20171;-83
2021/12/13 03:15:31;;;;;;;82.57;30.17;;;10.40;99.90;;;;;;4955045;28;20854;-84
2021/12/13 03:18:00;;;;;;;93.85;33.38;;;10.40;99.90;;;;;;4955058;28;20126;-84
2021/12/13 03:20:37;;;;;;;80.70;29.13;;;10.40;99.90;;;;;;4954424;28;20137;-83
2021/12/13 03:23:41;;;;;;;79.57;28.80;;;10.40;99.90;;;;;;4971070;28;20057;-85
2021/12/13 03:26:48;;;;;;;72.78;28.95;;;10.30;99.90;;;;;;4970267;28;20117;-83
2021/12/13 03:29:47;;;;;;;76.10;29.88;;;10.30;99.90;;;;;;4957082;28;20070;-85
2021/12/13 03:32:14;;;;;;;74.85;28.33;;;10.30;99.90;;;;;;4970420;28;20054;-84
2021/12/13 03:34:40;;;;;;;68.43;28.67;;;10.30;99.90;;;;;;4970646;28;20046;-84
2021/12/13 03:37:11;;;;;;;82.22;27.85;;;10.20;99.90;;;;;;4954611;28;20047;-83
2021/12/13 03:39:39;;;;;;;80.00;30.35;;;10.30;99.90;;;;;;4971888;28;20059;-85
2021/12/13 03:42:08;;;;;;;75.50;28.40;;;10.20;99.90;;;;;;4954600;28;20047;-84
2021/12/13 03:44:41;;;;;;;80.15;29.83;;;10.30;99.90;;;;;;4954650;28;20080;-85
2021/12/13 03:47:12;;;;;;;67.43;27.42;;;10.20;99.90;;;;;;4970621;28;20050;-83
2021/12/13 03:49:44;;;;;;;64.38;24.52;;;10.30;99.90;;;;;;4955279;28;20047;-83
2021/12/13 03:52:11;;;;;;;77.80;29.17;;;10.30;99.90;;;;;;4954134;28;20146;-82
2021/12/13 03:54:37;;;;;;;72.22;30.98;;;10.30;99.90;;;;;;4970624;28;20079;-85
2021/12/13 03:57:03;;;;;;;69.38;28.38;;;10.20;99.90;;;;;;4954842;28;20094;-84
2021/12/13 03:59:29;;;;;;;57.47;24.00;;;10.20;99.90;;;;;;4969932;28;20122;-84
2021/12/13 04:01:59;;;;;;;58.47;23.58;;;10.20;99.90;;;;;;4954695;28;20050;-85
2021/12/13 04:04:35;;;;;;;62.42;25.42;;;10.10;99.90;;;;;;4953867;28;20050;-84
2021/12/13 04:07:07;;;;;;;60.90;23.75;;;10.20;99.90;;;;;;4957884;28;20097;-85
2021/12/13 04:09:33;;;;;;;61.65;24.02;;;10.20;99.90;;;;;;4957826;28;20042;-84
2021/12/13 04:12:00;;;;;;;56.33;23.00;;;10.20;99.90;;;;;;4958218;28;20104;-84
2021/12/13 04:14:32;;;;;;;47.67;22.05;;;10.20;99.90;;;;;;4973824;28;20590;-84
2021/12/13 04:17:19;;;;;;;55.22;22.60;;;10.10;99.90;;;;;;4974356;28;20502;-84
2021/12/13 04:19:54;;;;;;;48.92;19.55;;;10.10;99.90;;;;;;4960017;28;20105;-84
2021/12/13 04:22:22;;;;;;;49.85;21.27;;;10.10;99.90;;;;;;4957559;28;20043;-85
2021/12/13 04:24:51;;;;;;;52.75;22.13;;;10.00;99.90;;;;;;4973923;28;20047;-84
2021/12/13 04:27:30;;;;;;;43.75;19.40;;;10.00;99.90;;;;;;4973569;28;20061;-85
2021/12/13 04:29:59;;;;;;;46.80;20.80;;;10.10;99.90;;;;;;4973817;28;20055;-85
2021/12/13 04:32:29;;;;;;;46.50;19.52;;;9.90;99.90;;;;;;4973431;28;20055;-84
2021/12/13 04:34:55;;;;;;;43.72;19.48;;;9.90;99.90;;;;;;4958070;28;20058;-85
2021/12/13 04:37:23;;;;;;;38.20;18.35;;;9.80;99.90;;;;;;4957270;28;20059;-84
2021/12/13 04:39:58;;;;;;;48.58;19.50;;;9.80;99.90;;;;;;4957728;28;20082;-85
2021/12/13 04:42:25;;;;;;;47.90;19.63;;;10.20;99.90;;;;;;4973204;28;20391;-85
2021/12/13 04:45:06;;;;;;;43.38;19.48;;;9.80;99.90;;;;;;4973725;28;20094;-84
2021/12/13 04:47:37;;;;;;;46.15;21.02;;;9.70;99.90;;;;;;4973251;28;20134;-84
2021/12/13 04:50:17;;;;;;;47.05;21.77;;;9.70;99.90;;;;;;4957213;28;20045;-84
2021/12/13 04:52:43;;;;;;;43.92;21.67;;;9.80;99.90;;;;;;4973451;28;20077;-85
2021/12/13 04:55:15;;;;;;;46.95;21.17;;;9.70;99.90;;;;;;4974752;28;20434;-85
2021/12/13 04:57:41;;;;;;;41.53;20.75;;;9.70;99.90;;;;;;4957132;28;20139;-85
2021/12/13 05:00:11;;;;;;;44.67;20.45;;;9.60;99.90;;;;;;4973503;28;20134;-85
2021/12/13 05:02:42;;;;;;;34.42;17.10;;;9.70;99.90;;;;;;4941281;28;20043;-85
2021/12/13 05:05:07;;;;;;;35.60;17.25;;;9.50;99.90;;;;;;4956997;28;20819;-85
2021/12/13 05:07:35;;;;;;;39.92;18.88;;;9.50;99.90;;;;;;4956784;28;20109;-84
2021/12/13 05:10:01;;;;;;;44.13;18.88;;;9.50;99.90;;;;;;4957056;28;20058;-85
2021/12/13 05:12:28;;;;;;;41.20;18.92;;;9.40;99.90;;;;;;4956477;28;20403;-85
2021/12/13 05:15:10;;;;;;;33.17;16.90;;;9.40;99.90;;;;;;4957222;28;20133;-85
2021/12/13 05:17:42;;;;;;;37.72;18.58;;;9.50;99.90;;;;;;4971788;28;20054;-85
2021/12/13 05:20:29;;;;;;;40.45;18.35;;;9.50;99.90;;;;;;4973055;28;20051;-84
2021/12/13 05:23:01;;;;;;;35.63;17.38;;;9.50;99.90;;;;;;4957020;28;20506;-85
2021/12/13 05:25:41;;;;;;;47.47;20.33;;;9.50;99.90;;;;;;4956305;28;20053;-85
2021/12/13 05:28:11;;;;;;;47.30;20.33;;;9.50;99.90;;;;;;4972752;28;20565;-85
2021/12/13 05:30:45;;;;;;;41.70;19.20;;;9.40;99.90;;;;;;4972437;28;20054;-85
2021/12/13 05:33:10;;;;;;;33.90;18.23;;;9.60;99.90;;;;;;4972948;28;20086;-85
2021/12/13 05:35:39;;;;;;;40.40;18.52;;;9.50;99.90;;;;;;4955737;28;20101;-85
2021/12/13 05:38:08;;;;;;;44.17;19.70;;;9.50;99.90;;;;;;4956770;28;20070;-84
2021/12/13 05:40:42;;;;;;;41.85;18.67;;;9.50;99.90;;;;;;4972184;28;20137;-85
2021/12/13 05:43:28;;;;;;;40.00;18.80;;;9.50;99.90;;;;;;4957092;28;20113;-85
2021/12/13 05:46:18;;;;;;;41.78;19.00;;;9.50;99.90;;;;;;4972127;28;20057;-83
2021/12/13 05:48:54;;;;;;;36.33;17.63;;;9.50;99.90;;;;;;4956142;28;20123;-86
2021/12/13 05:51:44;;;;;;;40.58;19.35;;;9.40;99.90;;;;;;4941355;28;20415;-86
2021/12/13 05:54:11;;;;;;;39.55;17.95;;;9.40;99.90;;;;;;4957154;28;20058;-85
2021/12/13 05:56:45;;;;;;;38.58;17.98;;;9.40;99.90;;;;;;4955867;28;20126;-85
2021/12/13 05:59:13;;;;;;;;;;;9.40;99.90;;;;;;4957498;28;20050;-85
2021/12/13 06:01:56;;;;;;;49.08;19.13;;;9.40;99.90;;;;;;4971828;28;19926;-85
2021/12/13 06:04:34;;;;;;;37.20;16.90;;;9.40;99.90;;;;;;4972325;28;20121;-85
2021/12/13 06:07:00;;;;;;;45.80;18.70;;;9.50;99.90;;;;;;4956352;28;20055;-85
2021/12/13 06:09:43;;;;;;;40.95;20.85;;;9.50;99.90;;;;;;4939737;28;20057;-83
2021/12/13 06:12:26;;;;;;;39.53;18.00;;;9.50;99.90;;;;;;4972274;28;20047;-85
2021/12/13 06:14:52;;;;;;;40.38;18.95;;;9.40;99.90;;;;;;4972074;28;20482;-85
2021/12/13 06:17:29;;;;;;;35.95;18.65;;;9.40;99.90;;;;;;4955949;28;20051;-85
2021/12/13 06:20:01;;;;;;;37.50;18.20;;;9.40;99.90;;;;;;4957039;28;20055;-85
2021/12/13 06:22:29;;;;;;;33.88;17.80;;;9.40;99.90;;;;;;4971640;28;20053;-84
2021/12/13 06:25:03;;;;;;;32.67;17.27;;;9.30;99.90;;;;;;4955720;28;20681;-85
2021/12/13 06:27:43;;;;;;;36.35;17.08;;;9.40;99.90;;;;;;4939535;28;20097;-83
2021/12/13 06:30:21;;;;;;;32.38;16.17;;;9.50;99.90;;;;;;4954905;28;20066;-86
2021/12/13 06:32:57;;;;;;;37.45;17.80;;;9.40;99.90;;;;;;4971069;28;20051;-88
2021/12/13 06:35:43;;;;;;;35.45;18.05;;;9.40;99.90;;;;;;4971618;28;20046;-86
2021/12/13 06:38:29;;;;;;;34.70;17.38;;;9.40;99.90;;;;;;4971439;28;20053;-85
2021/12/13 06:41:14;;;;;;;33.92;17.10;;;9.40;99.90;;;;;;4955398;28;20051;-85
2021/12/13 06:43:57;;;;;;;38.05;18.90;;;9.30;99.90;;;;;;4972089;28;20090;-87
2021/12/13 06:46:23;;;;;;;34.10;19.55;;;9.30;99.90;;;;;;4971587;28;20051;-87
2021/12/13 06:48:58;;;;;;;35.03;17.52;;;9.30;99.90;;;;;;4970849;28;20400;-86
2021/12/13 06:51:44;;;;;;;38.70;18.67;;;9.30;99.90;;;;;;4955737;28;20054;-86
2021/12/13 06:54:26;;;;;;;36.08;19.38;;;9.30;99.90;;;;;;4960533;28;20062;-84
2021/12/13 06:57:03;;;;;;;33.78;19.98;;;9.30;99.90;;;;;;4970823;28;20057;-87
2021/12/13 06:59:29;;;;;;;36.60;19.60;;;9.30;99.90;;;;;;4971384;28;20086;-87
2021/12/13 07:02:08;;;;;;;43.58;19.77;;;9.30;99.90;;;;;;4954604;28;20054;-86
2021/12/13 07:04:48;;;;;;;41.70;22.75;;;9.30;99.90;;;;;;4938433;28;20719;-86
2021/12/13 07:07:14;;;;;;;41.05;19.58;;;9.30;99.90;;;;;;4955030;28;20495;-87
2021/12/13 07:09:40;;;;;;;46.75;22.33;;;9.30;99.90;;;;;;4954510;28;20057;-85
2021/12/13 07:12:14;;;;;;;43.97;23.10;;;9.30;99.90;;;;;;4954775;28;20078;-86
2021/12/13 07:14:39;;;;;;;42.33;22.45;;;9.30;99.90;;;;;;4938380;28;20050;-85
2021/12/13 07:17:21;;;;;;;45.67;24.23;;;9.30;99.90;;;;;;4970630;28;20054;-85
2021/12/13 07:19:48;;;;;;;49.80;25.25;;;9.40;99.90;;;;;;4954253;28;20062;-88
2021/12/13 07:22:22;;;;;;;45.85;24.85;;;9.30;99.90;;;;;;4970668;28;20408;-81
2021/12/13 07:25:00;;;;;;;;;;;9.30;99.90;;;;;;4970622;28;20047;-81
2021/12/13 07:27:33;;;;;;;40.63;23.23;;;9.30;99.90;;;;;;4972088;28;19922;-81
2021/12/13 07:30:19;;;;;;;48.90;24.77;;;9.30;99.90;;;;;;4971672;28;20074;-81
2021/12/13 07:32:57;;;;;;;45.88;26.40;;;9.30;99.90;;;;;;4954314;28;20129;-81
2021/12/13 07:35:23;;;;;;;49.33;26.05;;;9.20;99.90;;;;;;4970882;28;20082;-81
2021/12/13 07:38:10;;;;;;;50.88;27.40;;;9.20;99.90;;;;;;4970413;28;20101;-81
2021/12/13 07:40:43;;;;;;;50.92;27.10;;;9.30;99.90;;;;;;4970460;28;20063;-81
2021/12/13 07:43:15;;;;;;;57.00;28.38;;;9.30;99.90;;;;;;4974778;28;20058;-81
2021/12/13 07:45:46;;;;;;;57.03;28.60;;;9.30;99.90;;;;;;4974476;28;20055;-82
2021/12/13 07:48:24;;;;;;;60.72;30.23;;;9.30;99.90;;;;;;4975415;28;20050;-82
2021/12/13 07:51:08;;;;;;;58.75;30.88;;;9.30;99.90;;;;;;4958288;28;20075;-81
2021/12/13 07:54:06;;;;;;;59.58;30.55;;;9.30;99.90;;;;;;4975108;28;20082;-81
2021/12/13 07:56:33;;;;;;;62.00;31.80;;;9.30;99.90;;;;;;4975718;28;20063;-81
2021/12/13 07:59:01;;;;;;;56.05;30.75;;;9.30;99.90;;;;;;4958268;28;20114;-81
2021/12/13 08:01:28;;;;;;;60.08;32.55;;;9.30;99.90;;;;;;4975947;28;20050;-81
2021/12/13 08:04:07;;;;;;;58.78;32.10;;;9.30;99.90;;;;;;4957970;28;20078;-81
2021/12/13 08:06:41;;;;;;;59.72;32.15;;;9.30;99.90;;;;;;4974648;28;20097;-81
2021/12/13 08:09:09;;;;;;;60.28;32.42;;;9.30;99.90;;;;;;4976121;28;20047;-81
2021/12/13 08:11:43;;;;;;;61.05;32.50;;;9.30;99.90;;;;;;4974419;28;20249;-80
2021/12/13 08:14:09;;;;;;;58.53;32.70;;;9.30;99.90;;;;;;4958474;28;20053;-81
2021/12/13 08:16:41;;;;;;;64.50;34.88;;;9.30;99.90;;;;;;4974567;28;20382;-83
2021/12/13 08:19:17;;;;;;;63.58;34.13;;;9.40;99.90;;;;;;4957955;28;20395;-81
2021/12/13 08:21:47;;;;;;;59.58;33.45;;;9.30;99.90;;;;;;4957803;28;20141;-81
2021/12/13 08:24:18;;;;;;;70.18;35.30;;;9.30;99.90;;;;;;4973999;28;20047;-81
2021/12/13 08:26:44;;;;;;;63.10;35.90;;;9.30;99.90;;;;;;4958107;28;20150;-83
2021/12/13 08:29:19;;;;;;;63.63;35.00;;;9.30;99.90;;;;;;4974143;28;20129;-83
2021/12/13 08:31:46;;;;;;;63.35;33.60;;;9.30;99.90;;;;;;4941774;28;20488;-81
2021/12/13 08:34:15;;;;;;;60.55;34.78;;;9.40;99.90;;;;;;4973675;28;20054;-81
2021/12/13 08:36:46;;;;;;;72.20;37.10;;;9.40;99.90;;;;;;4957939;28;20164;-81
2021/12/13 08:39:16;;;;;;;63.78;36.75;;;9.40;99.90;;;;;;4977204;28;20447;-81
2021/12/13 08:42:10;;;;;;;63.22;34.92;;;9.40;99.90;;;;;;4993348;28;20054;-81
2021/12/13 08:44:41;;;;;;;66.75;35.63;;;9.40;99.90;;;;;;4989659;28;20074;-80
2021/12/13 08:47:07;;;;;;;64.75;36.28;;;9.40;99.90;;;;;;4992449;28;20406;-80
2021/12/13 08:49:38;;;;;;;60.78;35.75;;;9.40;99.90;;;;;;4993234;28;20046;-80
2021/12/13 08:52:13;;;;;;;59.35;35.17;;;9.40;99.90;;;;;;4991003;28;20069;-80
2021/12/13 08:54:52;;;;;;;53.35;33.38;;;9.40;99.90;;;;;;4976539;28;20058;-81
2021/12/13 08:57:46;;;;;;;58.60;34.60;;;9.50;99.90;;;;;;4992623;28;20526;-81
2021/12/13 09:00:12;;;;;;;54.45;33.40;;;9.40;99.90;;;;;;4977691;28;20081;-80
2021/12/13 09:02:41;;;;;;;58.00;35.25;;;9.40;99.90;;;;;;4992472;28;20487;-80
2021/12/13 09:05:09;;;;;;;55.03;32.67;;;9.40;99.90;;;;;;4991584;28;20053;-80
2021/12/13 09:07:34;;;;;;;57.03;33.25;;;9.40;99.90;;;;;;4992294;28;20058;-80
2021/12/13 09:10:00;;;;;;;58.67;33.03;;;9.40;99.90;;;;;;4977602;28;20725;-80
2021/12/13 09:12:31;;;;;;;54.35;32.97;;;9.40;99.90;;;;;;4982859;28;20134;-80
2021/12/13 09:14:57;;;;;;;49.97;32.47;;;9.40;99.90;;;;;;4964924;28;20058;-80
2021/12/13 09:17:38;;;;;;;52.50;31.20;;;9.40;99.90;;;;;;4975349;28;20046;-80
2021/12/13 09:20:22;;;;;;;48.83;30.80;;;9.50;99.90;;;;;;4971875;28;20488;-80
2021/12/13 09:22:54;;;;;;;49.15;31.05;;;9.40;99.90;;;;;;4958100;28;20396;-80
2021/12/13 09:25:44;;;;;;;52.35;32.17;;;9.40;99.90;;;;;;4973875;28;20051;-80
2021/12/13 09:28:15;;;;;;;47.47;29.75;;;9.40;99.90;;;;;;4973313;28;20248;-80
2021/12/13 09:30:56;;;;;;;44.50;30.20;;;9.40;99.90;;;;;;4973712;28;20047;-80
2021/12/13 09:33:29;;;;;;;46.53;30.63;;;9.40;99.90;;;;;;4956775;28;20110;-79
2021/12/13 09:36:11;;;;;;;47.65;29.77;;;9.40;99.90;;;;;;4971978;28;20050;-79
2021/12/13 09:39:17;;;;;;;47.25;29.90;;;9.40;99.90;;;;;;4972980;28;20341;-79
2021/12/13 09:41:44;;;;;;;47.03;28.33;;;9.40;99.90;;;;;;4968147;28;20066;-80
2021/12/13 09:44:13;;;;;;;46.97;28.17;;;9.50;99.90;;;;;;4971915;28;20396;-80
2021/12/13 09:46:41;;;;;;;43.78;29.52;;;9.50;99.90;;;;;;4972215;28;20141;-80
2021/12/13 09:49:34;;;;;;;42.17;28.92;;;9.60;99.90;;;;;;4971571;28;20065;-79
2021/12/13 09:52:05;;;;;;;46.45;29.02;;;9.60;99.90;;;;;;4972696;28;20050;-78
2021/12/13 09:54:38;;;;;;;45.95;28.90;;;9.60;99.90;;;;;;4971912;28;20117;-79
2021/12/13 09:57:10;;;;;;;44.60;27.40;;;9.60;99.90;;;;;;4972654;28;20125;-81
2021/12/13 09:59:54;;;;;;;44.58;27.38;;;9.70;99.90;;;;;;4973210;28;20066;-79
2021/12/13 10:02:27;;;;;;;41.25;26.38;;;9.60;99.90;;;;;;4971912;28;20046;-81
2021/12/13 10:04:53;;;;;;;43.42;27.52;;;9.60;99.90;;;;;;4972055;28;20487;-81
2021/12/13 10:07:27;;;;;;;38.28;26.98;;;9.60;99.90;;;;;;4971633;28;20113;-81
2021/12/13 10:09:59;;;;;;;46.63;28.77;;;9.60;99.90;;;;;;4972422;28;20384;-82
2021/12/13 10:12:47;;;;;;;41.10;26.25;;;9.60;99.90;;;;;;4972001;28;20483;-82
2021/12/13 10:15:28;;;;;;;41.45;26.98;;;9.70;99.90;;;;;;4972168;28;20066;-80
2021/12/13 10:18:05;;;;;;;43.70;27.70;;;9.70;99.90;;;;;;4971778;28;20059;-80
2021/12/13 10:20:43;;;;;;;42.90;25.98;;;9.70;99.90;;;;;;4972983;28;20099;-80
2021/12/13 10:23:13;;;;;;;40.03;26.73;;;9.60;99.90;;;;;;4971317;28;20050;-80
2021/12/13 10:25:42;;;;;;;37.53;24.80;;;9.60;99.90;;;;;;4972824;28;20101;-80
2021/12/13 10:28:10;;;;;;;38.60;25.92;;;9.70;99.90;;;;;;4972403;28;20062;-80
2021/12/13 10:30:48;;;;;;;36.95;24.25;;;9.70;99.90;;;;;;4971531;28;20058;-80
2021/12/13 10:33:14;;;;;;;36.55;24.83;;;9.70;99.90;;;;;;4956690;28;20047;-80
2021/12/13 10:35:41;;;;;;;35.17;23.55;;;9.70;99.90;;;;;;4971332;28;20042;-80
2021/12/13 10:38:10;;;;;;;35.13;22.05;;;9.70;99.90;;;;;;4972561;28;20578;-79
2021/12/13 10:40:46;;;;;;;33.72;23.95;;;9.70;99.90;;;;;;4972840;28;20484;-82
2021/12/13 10:43:21;;;;;;;36.38;24.20;;;9.70;99.90;;;;;;4970716;28;20054;-81
2021/12/13 10:45:50;;;;;;;36.05;24.10;;;9.70;99.90;;;;;;4971315;28;20109;-81
2021/12/13 10:48:16;;;;;;;33.35;22.67;;;9.70;99.90;;;;;;4970733;28;20105;-79
2021/12/13 10:50:51;;;;;;;36.80;23.77;;;9.70;99.90;;;;;;4971051;28;20054;-80
2021/12/13 10:53:22;;;;;;;35.25;22.75;;;9.70;99.90;;;;;;4971975;28;20062;-80
2021/12/13 10:55:54;;;;;;;36.80;22.65;;;9.60;99.90;;;;;;4955582;28;20050;-81
2021/12/13 10:58:22;;;;;;;32.95;20.52;;;9.60;99.90;;;;;;4970682;28;20062;-80
2021/12/13 11:00:51;;;;;;;32.95;21.67;;;9.70;99.90;;;;;;4972299;28;20050;-82
2021/12/13 11:03:19;;;;;;;34.97;21.40;;;9.80;99.90;;;;;;4955189;28;20066;-82
2021/12/13 11:05:45;;;;;;;30.73;21.13;;;9.80;99.90;;;;;;4972126;28;20055;-82
2021/12/13 11:08:12;;;;;;;33.95;21.65;;;9.80;99.90;;;;;;4970441;28;20518;-81
2021/12/13 11:10:45;;;;;;;31.60;20.42;;;9.80;99.90;;;;;;4955032;28;20053;-82
2021/12/13 11:13:11;;;;;;;31.27;19.95;;;9.90;99.90;;;;;;4954680;28;20198;-83
2021/12/13 11:15:39;;;;;;;30.40;20.63;;;9.90;99.90;;;;;;4954411;28;20133;-82
2021/12/13 11:18:08;;;;;;;29.27;18.88;;;9.80;99.90;;;;;;4970394;28;20050;-81
2021/12/13 11:20:38;;;;;;;31.70;20.15;;;9.90;99.90;;;;;;4955235;28;20542;-82
2021/12/13 11:23:04;;;;;;;30.13;19.75;;;9.90;99.90;;;;;;4970536;28;20050;-81
2021/12/13 11:25:33;;;;;;;27.48;18.95;;;9.90;99.90;;;;;;4970563;28;20404;-82
2021/12/13 11:27:59;;;;;;;27.88;18.67;;;9.90;99.90;;;;;;4954880;28;20415;-83
2021/12/13 11:30:27;;;;;;;28.67;19.63;;;9.90;99.90;;;;;;4969909;28;20051;-82
2021/12/13 11:32:59;;;;;;;28.55;19.73;;;9.90;99.90;;;;;;4970719;28;20058;-82
2021/12/13 11:35:47;;;;;;;29.65;18.55;;;9.90;99.90;;;;;;4970371;28;21072;-82
2021/12/13 11:38:49;;;;;;;35.38;19.42;;;9.90;99.90;;;;;;4971550;28;20494;-83
2021/12/13 11:41:37;;;;;;;28.05;18.85;;;9.90;99.90;;;;;;4970627;28;20462;-83
2021/12/13 11:44:21;;;;;;;31.13;19.85;;;9.90;99.90;;;;;;4972102;28;20480;-81
2021/12/13 11:47:00;;;;;;;29.27;18.98;;;9.90;99.90;;;;;;4970907;28;20050;-81
2021/12/13 11:50:03;;;;;;;26.65;18.08;;;9.90;99.90;;;;;;4954575;28;20141;-82
2021/12/13 11:53:02;;;;;;;28.17;18.70;;;10.00;99.90;;;;;;4969548;28;20051;-83
2021/12/13 11:55:39;;;;;;;27.75;18.27;;;10.00;99.90;;;;;;4971428;28;20055;-82
2021/12/13 11:58:27;;;;;;;30.48;18.27;;;10.00;99.90;;;;;;4955014;28;20133;-82
2021/12/13 12:01:30;;;;;;;27.90;17.48;;;10.00;99.90;;;;;;4970699;28;20491;-82
2021/12/13 12:04:07;;;;;;;28.70;18.15;;;10.10;99.90;;;;;;4971256;28;20051;-83
2021/12/13 12:07:10;;;;;;;27.20;17.75;;;10.00;99.90;;;;;;4971113;28;20470;-81
2021/12/13 12:10:05;;;;;;;26.05;15.88;;;10.00;99.90;;;;;;4971031;28;20058;-81
2021/12/13 12:12:53;;;;;;;26.35;17.33;;;9.90;99.90;;;;;;4970904;28;20191;-81
2021/12/13 12:15:18;;;;;;;28.08;18.02;;;10.00;99.90;;;;;;4969898;28;20130;-81
2021/12/13 12:17:44;;;;;;;28.00;17.60;;;10.00;99.90;;;;;;4970235;28;20149;-80
2021/12/13 12:20:13;;;;;;;27.73;17.60;;;10.00;99.90;;;;;;4969897;28;20095;-80
2021/12/13 12:22:49;;;;;;;25.90;17.52;;;10.00;99.90;;;;;;4970117;28;20055;-81
2021/12/13 12:25:14;;;;;;;27.10;18.83;;;10.00;99.90;;;;;;4969881;28;20383;-81
2021/12/13 12:27:40;;;;;;;27.42;18.25;;;10.00;99.90;;;;;;4956116;28;20050;-82
2021/12/13 12:30:15;;;;;;;31.88;18.92;;;10.00;99.90;;;;;;4973641;28;20055;-81
2021/12/13 12:32:46;;;;;;;28.08;17.83;;;10.00;99.90;;;;;;4973708;28;20746;-81
2021/12/13 12:35:15;;;;;;;30.58;18.27;;;9.90;99.90;;;;;;4975628;28;20046;-81
2021/12/13 12:37:59;;;;;;;28.35;17.63;;;10.00;99.90;;;;;;4973486;28;20096;-82
2021/12/13 12:40:44;;;;;;;28.92;17.95;;;10.00;99.90;;;;;;4973172;28;20119;-81
2021/12/13 12:43:15;;;;;;;26.95;17.92;;;10.00;99.90;;;;;;4975251;28;20057;-81
2021/12/13 12:45:43;;;;;;;31.77;19.15;;;10.00;99.90;;;;;;4973653;28;20051;-81
2021/12/13 12:48:16;;;;;;;28.02;17.98;;;10.10;99.90;;;;;;4975194;28;20055;-81
2021/12/13 12:50:45;;;;;;;34.00;18.20;;;10.00;99.90;;;;;;4973689;28;20055;-81
2021/12/13 12:53:14;;;;;;;26.92;17.83;;;10.10;99.90;;;;;;4974945;28;20404;-81
2021/12/13 12:55:47;;;;;;;29.42;17.65;;;10.10;99.90;;;;;;4972677;28;20046;-81
2021/12/13 12:58:26;;;;;;;29.48;18.83;;;10.20;99.90;;;;;;4973692;28;20058;-81
2021/12/13 13:00:53;;;;;;;27.00;17.65;;;10.20;99.90;;;;;;4958094;28;20054;-81
2021/12/13 13:03:25;;;;;;;24.20;16.58;;;10.20;99.90;;;;;;4972716;28;20065;-81
2021/12/13 13:05:52;;;;;;;26.98;17.98;;;10.20;99.90;;;;;;4973040;28;20058;-81
2021/12/13 13:08:32;;;;;;;27.63;17.63;;;10.20;99.90;;;;;;4957181;28;20138;-80
2021/12/13 13:13:42;;;;;;;26.15;17.08;;;10.20;99.90;;;;;;4959258;28;20058;-81